createdAt,value
2019-02-15T00:05:01.907Z,12.27
2019-02-15T00:10:10.261Z,12.79
2019-02-15T00:15:18.345Z,13.43
2019-02-15T00:20:26.526Z,13.21
2019-02-15T00:25:34.661Z,13.86
2019-02-15T00:30:42.937Z,13.58
2019-02-15T00:35:51.068Z,13.44
2019-02-15T00:40:59.183Z,13.20
2019-02-15T00:46:08.220Z,13.32
2019-02-15T00:51:16.441Z,13.09
2019-02-15T00:56:24.580Z,12.95
2019-02-15T01:01:34.417Z,12.34
2019-02-15T01:06:42.584Z,12.84
2019-02-15T01:11:50.674Z,12.51
2019-02-15T01:16:58.780Z,12.08
2019-02-15T01:22:06.936Z,12.38
2019-02-15T01:27:15.092Z,12.00
2019-02-15T01:32:23.467Z,12.37
2019-02-15T01:37:31.524Z,11.89
2019-02-15T01:42:39.667Z,12.12
2019-02-15T01:47:47.852Z,12.01
2019-02-15T01:52:55.998Z,11.77
2019-02-15T01:58:04.263Z,12.54
2019-02-15T02:03:12.425Z,12.37
2019-02-15T02:08:20.748Z,11.87
2019-02-15T02:13:28.799Z,11.77
2019-02-15T02:18:36.991Z,11.72
2019-02-15T02:23:45.151Z,11.90
2019-02-15T02:28:53.297Z,12.33
2019-02-15T02:34:01.384Z,12.85
2019-02-15T02:39:09.883Z,12.23
2019-02-15T02:44:18.296Z,12.21
2019-02-15T02:49:26.373Z,12.38
2019-02-15T02:54:34.586Z,13.19
2019-02-15T02:59:42.808Z,12.59
2019-02-15T03:04:50.985Z,12.62
2019-02-15T03:09:59.047Z,12.50
2019-02-15T03:15:07.226Z,12.60
2019-02-15T03:20:15.382Z,12.61
2019-02-15T03:25:23.454Z,12.87
2019-02-15T03:30:31.687Z,13.11
2019-02-15T03:35:40.158Z,14.01
2019-02-15T03:40:48.198Z,14.43
2019-02-15T03:45:56.337Z,13.80
2019-02-15T03:51:04.481Z,14.01
2019-02-15T03:56:12.562Z,14.37
2019-02-15T04:01:20.662Z,13.90
2019-02-15T04:06:29.137Z,13.99
2019-02-15T04:11:37.132Z,14.85
2019-02-15T04:16:45.460Z,14.14
2019-02-15T04:21:53.628Z,15.09
2019-02-15T04:27:01.701Z,14.84
2019-02-15T04:32:10.374Z,16.42
2019-02-15T04:37:18.450Z,16.19
2019-02-15T04:42:27.038Z,15.84
2019-02-15T04:47:35.141Z,15.78
2019-02-15T04:52:44.029Z,15.24
2019-02-15T04:57:52.119Z,15.12
2019-02-15T05:03:00.686Z,16.24
2019-02-15T05:08:08.827Z,14.87
2019-02-15T05:13:17.360Z,15.97
2019-02-15T05:18:25.590Z,15.56
2019-02-15T05:23:34.125Z,15.27
2019-02-15T05:28:42.485Z,15.49
2019-02-15T05:33:50.985Z,15.50
2019-02-15T05:38:59.025Z,15.08
2019-02-15T05:44:07.729Z,15.29
2019-02-15T05:49:15.846Z,15.53
2019-02-15T05:54:24.006Z,14.37
2019-02-15T05:59:32.021Z,14.40
2019-02-15T06:04:40.063Z,15.51
2019-02-15T06:09:48.620Z,15.34
2019-02-15T06:14:56.781Z,15.41
2019-02-15T06:20:04.869Z,15.93
2019-02-15T06:25:12.911Z,16.03
2019-02-15T06:30:22.285Z,16.28
2019-02-15T06:35:33.014Z,15.43
2019-02-15T06:40:38.534Z,16.20
2019-02-15T06:45:46.973Z,15.78
2019-02-15T06:50:54.876Z,15.02
2019-02-15T06:56:03.114Z,15.84
2019-02-15T07:01:11.337Z,16.07
2019-02-15T07:06:19.684Z,15.56
2019-02-15T07:11:27.681Z,15.94
2019-02-15T07:16:36.134Z,16.96
2019-02-15T07:21:44.293Z,15.78
2019-02-15T07:26:52.976Z,14.58
2019-02-15T07:32:01.237Z,13.77
2019-02-15T07:37:10.153Z,14.49
2019-02-15T07:42:18.633Z,13.54
2019-02-15T07:47:27.015Z,12.62
2019-02-15T07:52:35.520Z,12.46
2019-02-15T07:57:43.677Z,12.00
2019-02-15T08:02:52.010Z,12.25
2019-02-15T08:08:00.085Z,11.88
2019-02-15T08:13:08.361Z,11.96
2019-02-15T08:18:16.864Z,11.59
2019-02-15T08:23:24.989Z,11.36
2019-02-15T08:28:33.753Z,11.27
2019-02-15T08:33:41.764Z,11.29
2019-02-15T08:38:50.119Z,12.19
2019-02-15T08:43:58.233Z,12.11
2019-02-15T08:49:06.353Z,11.77
2019-02-15T08:54:14.697Z,11.29
2019-02-15T08:59:22.849Z,10.89
2019-02-15T09:04:31.009Z,10.79
2019-02-15T09:09:39.169Z,10.58
2019-02-15T09:14:47.296Z,10.92
2019-02-15T09:19:55.505Z,10.62
2019-02-15T09:25:03.664Z,11.63
2019-02-15T09:30:11.710Z,11.57
2019-02-15T09:35:19.990Z,11.53
2019-02-15T09:40:28.121Z,11.51
2019-02-15T09:45:36.664Z,11.69
2019-02-15T09:50:45.040Z,12.06
2019-02-15T09:55:54.848Z,12.15
2019-02-15T10:01:03.036Z,11.84
2019-02-15T10:06:11.441Z,12.17
2019-02-15T10:11:19.608Z,11.48
2019-02-15T10:16:30.728Z,11.23
2019-02-15T10:21:34.361Z,11.52
2019-02-15T10:26:43.286Z,11.80
2019-02-15T10:31:51.289Z,11.86
2019-02-15T10:36:59.443Z,11.64
2019-02-15T10:42:07.541Z,11.62
2019-02-15T10:47:24.474Z,11.02
2019-02-15T10:52:23.793Z,10.98
2019-02-15T10:57:32.264Z,10.72
2019-02-15T11:02:40.419Z,11.32
2019-02-15T11:07:48.558Z,11.14
2019-02-15T11:12:56.651Z,11.52
2019-02-15T11:18:05.117Z,11.86
2019-02-15T11:23:13.293Z,11.11
2019-02-15T11:28:21.429Z,11.57
2019-02-15T11:33:23.409Z,11.78
2019-02-15T11:38:31.569Z,14.15
2019-02-15T11:43:39.613Z,11.62
2019-02-15T11:48:47.769Z,11.14
2019-02-15T11:53:55.969Z,11.17
2019-02-15T11:59:04.344Z,10.58
2019-02-15T12:04:12.533Z,11.02
2019-02-15T12:09:20.610Z,10.97
2019-02-15T12:14:28.625Z,11.75
2019-02-15T12:19:35.165Z,10.18
2019-02-15T12:24:43.151Z,9.68
2019-02-15T12:29:45.090Z,10.53
2019-02-15T12:34:53.220Z,10.11
2019-02-15T12:40:01.614Z,9.59
2019-02-15T12:45:09.738Z,10.62
2019-02-15T12:50:17.823Z,9.33
2019-02-15T12:55:25.803Z,9.00
2019-02-15T13:00:34.211Z,8.65
2019-02-15T13:05:42.652Z,8.30
2019-02-15T13:10:50.766Z,7.75
2019-02-15T13:15:58.909Z,8.80
2019-02-15T13:21:06.968Z,8.14
2019-02-15T13:26:15.156Z,7.83
2019-02-15T13:31:23.374Z,7.67
2019-02-15T13:36:31.388Z,8.44
2019-02-15T13:41:39.533Z,10.18
2019-02-15T13:46:48.008Z,7.94
2019-02-15T13:51:56.028Z,8.45
2019-02-15T13:57:04.369Z,6.29
2019-02-15T14:02:12.502Z,5.98
2019-02-15T14:07:22.021Z,6.09
2019-02-15T14:12:24.061Z,6.38
2019-02-15T14:17:32.106Z,4.85
2019-02-15T14:22:40.313Z,3.84
2019-02-15T14:27:48.413Z,4.13
2019-02-15T14:32:56.545Z,4.52
2019-02-15T14:38:04.846Z,5.13
2019-02-15T14:43:13.013Z,4.71
2019-02-15T14:48:21.125Z,3.84
2019-02-15T14:53:29.249Z,3.07
2019-02-15T14:58:37.426Z,3.11
2019-02-15T15:03:45.525Z,3.48
2019-02-15T15:08:53.625Z,3.38
2019-02-15T15:14:01.779Z,3.08
2019-02-15T15:19:09.804Z,3.40
2019-02-15T15:24:17.873Z,2.66
2019-02-15T15:29:25.826Z,2.17
2019-02-15T15:34:33.972Z,2.05
2019-02-15T15:39:42.110Z,1.97
2019-02-15T15:44:50.193Z,1.91
2019-02-15T15:49:58.396Z,1.57
2019-02-15T15:55:06.442Z,1.57
2019-02-15T16:00:14.569Z,1.53
2019-02-15T16:05:22.642Z,1.65
2019-02-15T16:10:30.741Z,1.70
2019-02-15T16:15:38.839Z,3.45
2019-02-15T16:20:47.005Z,2.79
2019-02-15T16:25:55.119Z,2.75
2019-02-15T16:31:03.213Z,2.99
2019-02-15T16:36:11.361Z,3.63
2019-02-15T16:41:19.551Z,3.57
2019-02-15T16:46:27.514Z,3.79
2019-02-15T16:51:35.660Z,4.07
2019-02-15T16:56:43.765Z,4.10
2019-02-15T17:01:52.034Z,4.54
2019-02-15T17:07:00.374Z,4.08
2019-02-15T17:12:11.769Z,4.01
2019-02-15T17:17:10.422Z,4.02
2019-02-15T17:22:18.747Z,6.33
2019-02-15T17:27:27.345Z,4.54
2019-02-15T17:32:35.879Z,4.04
2019-02-15T17:37:44.120Z,3.65
2019-02-15T17:42:52.533Z,3.72
2019-02-15T17:48:00.766Z,3.90
2019-02-15T17:53:09.209Z,3.43
2019-02-15T17:58:17.329Z,3.39
2019-02-15T18:03:25.692Z,3.33
2019-02-15T18:08:33.842Z,3.64
2019-02-15T18:13:42.000Z,3.72
2019-02-15T18:18:51.078Z,4.17
2019-02-15T18:23:59.163Z,4.32
2019-02-15T18:29:07.236Z,4.30
2019-02-15T18:34:15.359Z,3.86
2019-02-15T18:39:23.489Z,3.75
2019-02-15T18:44:31.583Z,3.66
2019-02-15T18:49:39.686Z,5.54
2019-02-15T18:54:47.810Z,4.42
2019-02-15T18:59:56.030Z,4.12
2019-02-15T19:05:04.118Z,4.61
2019-02-15T19:10:12.342Z,4.96
2019-02-15T19:15:20.367Z,4.81
2019-02-15T19:20:28.452Z,6.04
2019-02-15T19:25:36.781Z,7.34
2019-02-15T19:30:45.095Z,4.96
2019-02-15T19:35:53.581Z,5.23
2019-02-15T19:41:01.674Z,5.42
2019-02-15T19:46:10.277Z,5.94
2019-02-15T19:51:18.963Z,5.07
2019-02-15T19:56:27.121Z,5.37
2019-02-15T20:01:34.472Z,4.82
2019-02-15T20:06:42.577Z,5.00
2019-02-15T20:11:50.635Z,5.01
2019-02-15T20:16:59.053Z,5.02
2019-02-15T20:22:07.167Z,4.79
2019-02-15T20:27:15.314Z,4.98
2019-02-15T20:32:23.427Z,4.79
2019-02-15T20:37:31.602Z,5.07
2019-02-15T20:42:39.718Z,5.30
2019-02-15T20:47:47.795Z,5.16
2019-02-15T20:52:55.987Z,5.07
2019-02-15T20:58:04.021Z,4.96
2019-02-15T21:03:12.079Z,5.34
2019-02-15T21:08:20.229Z,5.25
2019-02-15T21:13:28.350Z,5.58
2019-02-15T21:18:36.484Z,5.46
2019-02-15T21:23:44.610Z,5.57
2019-02-15T21:28:52.718Z,5.36
2019-02-15T21:34:00.828Z,5.18
2019-02-15T21:39:08.972Z,4.66
2019-02-15T21:44:17.406Z,4.78
2019-02-15T21:49:25.566Z,4.96
2019-02-15T21:54:33.728Z,4.88
2019-02-15T21:59:41.972Z,4.91
2019-02-15T22:04:50.133Z,4.86
2019-02-15T22:09:58.249Z,4.98
2019-02-15T22:15:06.753Z,4.94
2019-02-15T22:20:15.097Z,5.39
2019-02-15T22:25:23.347Z,5.27
2019-02-15T22:30:31.407Z,5.21
2019-02-15T22:35:39.929Z,5.05
2019-02-15T22:40:48.089Z,6.21
2019-02-15T22:45:56.205Z,6.28
2019-02-15T22:51:04.357Z,6.62
2019-02-15T22:56:12.477Z,6.26
2019-02-15T23:01:20.610Z,5.15
2019-02-15T23:06:28.601Z,5.14
2019-02-15T23:11:36.736Z,4.83
2019-02-15T23:16:44.883Z,4.80
2019-02-15T23:21:52.987Z,4.66
2019-02-15T23:27:01.037Z,4.99
2019-02-15T23:32:09.152Z,4.73
2019-02-15T23:37:17.122Z,4.99
2019-02-15T23:42:25.189Z,4.94
2019-02-15T23:47:33.329Z,5.00
2019-02-15T23:52:41.461Z,5.23
2019-02-15T23:57:49.565Z,4.92
